createdAt,value
2019-03-01T00:00:50.577Z,83.50
2019-03-01T00:03:18.822Z,78.37
2019-03-01T00:05:51.408Z,85.23
2019-03-01T00:08:19.599Z,75.20
2019-03-01T00:10:58.329Z,81.70
2019-03-01T00:13:36.905Z,76.20
2019-03-01T00:16:18.563Z,88.07
2019-03-01T00:18:48.357Z,82.60
2019-03-01T00:21:23.768Z,87.50
2019-03-01T00:24:10.289Z,83.00
2019-03-01T00:26:51.993Z,87.97
2019-03-01T00:29:21.712Z,81.93
2019-03-01T00:32:08.416Z,85.30
2019-03-01T00:34:56.193Z,81.43
2019-03-01T00:37:28.630Z,89.67
2019-03-01T00:40:01.194Z,82.40
2019-03-01T00:42:47.620Z,86.67
2019-03-01T00:45:15.867Z,80.77
2019-03-01T00:47:44.133Z,85.60
2019-03-01T00:50:12.420Z,88.57
2019-03-01T00:52:40.604Z,75.30
2019-03-01T00:55:09.013Z,78.60
2019-03-01T00:57:37.238Z,82.37
2019-03-01T01:00:06.985Z,72.80
2019-03-01T01:02:35.198Z,78.87
2019-03-01T01:05:04.214Z,78.87
2019-03-01T01:07:32.395Z,66.83
2019-03-01T01:10:00.589Z,77.40
2019-03-01T01:12:28.790Z,66.53
2019-03-01T01:14:57.004Z,73.13
2019-03-01T01:17:25.191Z,72.77
2019-03-01T01:19:53.391Z,76.57
2019-03-01T01:22:21.607Z,76.93
2019-03-01T01:24:49.825Z,74.13
2019-03-01T01:27:18.141Z,83.23
2019-03-01T01:29:46.325Z,80.67
2019-03-01T01:32:15.437Z,69.23
2019-03-01T01:34:43.629Z,68.43
2019-03-01T01:37:11.881Z,67.53
2019-03-01T01:39:40.097Z,68.97
2019-03-01T01:42:08.296Z,78.67
2019-03-01T01:44:36.508Z,63.70
2019-03-01T01:47:04.745Z,76.17
2019-03-01T01:49:32.965Z,72.07
2019-03-01T01:52:01.144Z,73.80
2019-03-01T01:54:29.381Z,73.13
2019-03-01T01:56:57.584Z,97.63
2019-03-01T01:59:25.808Z,79.80
2019-03-01T02:01:54.030Z,72.20
2019-03-01T02:04:22.249Z,76.83
2019-03-01T02:06:50.512Z,66.90
2019-03-01T02:09:20.867Z,76.87
2019-03-01T02:11:49.109Z,75.13
2019-03-01T02:14:17.290Z,82.83
2019-03-01T02:16:45.513Z,75.83
2019-03-01T02:19:13.728Z,77.30
2019-03-01T02:21:42.017Z,76.63
2019-03-01T02:24:10.232Z,74.30
2019-03-01T02:26:38.445Z,76.27
2019-03-01T02:29:06.725Z,78.90
2019-03-01T02:31:35.092Z,79.17
2019-03-01T02:34:03.287Z,79.60
2019-03-01T02:36:31.517Z,76.90
2019-03-01T02:38:59.704Z,78.73
2019-03-01T02:41:27.930Z,82.60
2019-03-01T02:43:56.142Z,82.23
2019-03-01T02:46:24.329Z,89.93
2019-03-01T02:48:52.571Z,79.03
2019-03-01T02:51:20.753Z,88.93
2019-03-01T02:53:48.998Z,74.40
2019-03-01T02:56:17.214Z,72.37
2019-03-01T02:58:45.444Z,79.93
2019-03-01T03:01:13.662Z,84.57
2019-03-01T03:03:41.874Z,72.93
2019-03-01T03:06:23.641Z,76.77
2019-03-01T03:08:51.831Z,68.63
2019-03-01T03:11:20.028Z,73.20
2019-03-01T03:13:48.295Z,78.13
2019-03-01T03:16:16.504Z,78.93
2019-03-01T03:18:44.728Z,68.67
2019-03-01T03:21:13.053Z,78.50
2019-03-01T03:23:41.269Z,74.60
2019-03-01T03:26:09.494Z,67.50
2019-03-01T03:28:37.786Z,67.70
2019-03-01T03:31:05.998Z,71.07
2019-03-01T03:33:34.242Z,67.03
2019-03-01T03:36:02.486Z,77.00
2019-03-01T03:38:30.703Z,73.10
2019-03-01T03:40:58.942Z,77.40
2019-03-01T03:43:27.184Z,62.03
2019-03-01T03:45:55.371Z,64.23
2019-03-01T03:48:23.613Z,77.53
2019-03-01T03:50:51.793Z,77.20
2019-03-01T03:53:19.980Z,65.53
2019-03-01T03:55:48.197Z,69.37
2019-03-01T03:58:16.418Z,61.53
2019-03-01T04:00:44.703Z,70.23
2019-03-01T04:03:12.957Z,66.57
2019-03-01T04:05:41.198Z,71.23
2019-03-01T04:08:09.418Z,69.63
2019-03-01T04:10:37.681Z,60.47
2019-03-01T04:13:05.871Z,65.50
2019-03-01T04:15:34.142Z,67.87
2019-03-01T04:18:02.393Z,64.37
2019-03-01T04:20:30.581Z,70.00
2019-03-01T04:22:58.827Z,70.20
2019-03-01T04:25:27.043Z,67.50
2019-03-01T04:27:55.268Z,71.37
2019-03-01T04:30:23.586Z,64.73
2019-03-01T04:32:51.799Z,74.87
2019-03-01T04:35:20.294Z,68.20
2019-03-01T04:37:48.476Z,72.13
2019-03-01T04:40:16.691Z,78.10
2019-03-01T04:42:44.881Z,60.37
2019-03-01T04:45:13.951Z,68.03
2019-03-01T04:47:42.149Z,66.47
2019-03-01T04:50:11.039Z,74.10
2019-03-01T04:52:39.445Z,75.67
2019-03-01T04:55:09.277Z,75.93
2019-03-01T04:57:37.490Z,72.23
2019-03-01T05:00:10.213Z,70.47
2019-03-01T05:02:38.421Z,80.47
2019-03-01T05:05:06.683Z,74.37
2019-03-01T05:07:34.873Z,63.43
2019-03-01T05:10:03.761Z,65.83
2019-03-01T05:12:31.981Z,74.03
2019-03-01T05:15:00.265Z,77.73
2019-03-01T05:17:28.673Z,68.20
2019-03-01T05:19:56.905Z,64.17
2019-03-01T05:22:25.125Z,73.23
2019-03-01T05:24:53.400Z,79.27
2019-03-01T05:27:21.653Z,84.57
2019-03-01T05:29:49.901Z,75.63
2019-03-01T05:32:18.119Z,74.90
2019-03-01T05:34:46.312Z,71.03
2019-03-01T05:37:14.500Z,81.03
2019-03-01T05:39:42.743Z,81.27
2019-03-01T05:42:11.037Z,100.80
2019-03-01T05:44:39.277Z,94.10
2019-03-01T05:47:07.452Z,84.20
2019-03-01T05:49:35.697Z,105.17
2019-03-01T05:52:03.885Z,87.63
2019-03-01T05:54:32.075Z,101.07
2019-03-01T05:57:00.316Z,100.73
2019-03-01T05:59:28.504Z,92.27
2019-03-01T06:02:01.205Z,96.23
2019-03-01T06:04:30.976Z,88.77
2019-03-01T06:07:17.293Z,95.57
2019-03-01T06:09:47.072Z,103.87
2019-03-01T06:12:16.834Z,93.00
2019-03-01T06:14:52.688Z,93.00
2019-03-01T06:17:28.573Z,91.77
2019-03-01T06:19:58.299Z,100.23
2019-03-01T06:22:28.073Z,89.20
2019-03-01T06:25:06.789Z,102.70
2019-03-01T06:27:53.013Z,98.70
2019-03-01T06:30:39.149Z,93.93
2019-03-01T06:33:17.828Z,102.20
2019-03-01T06:35:56.730Z,93.70
2019-03-01T06:38:39.909Z,104.77
2019-03-01T06:41:17.242Z,103.50
2019-03-01T06:43:59.061Z,94.97
2019-03-01T06:46:34.441Z,97.13
2019-03-01T06:49:04.326Z,104.07
2019-03-01T06:51:32.510Z,98.00
2019-03-01T06:54:00.731Z,97.77
2019-03-01T06:56:28.969Z,96.20
2019-03-01T06:58:57.185Z,96.97
2019-03-01T07:01:26.577Z,110.63
2019-03-01T07:03:55.065Z,106.40
2019-03-01T07:06:23.297Z,120.63
2019-03-01T07:08:51.517Z,101.47
2019-03-01T07:11:19.741Z,91.83
2019-03-01T07:13:47.927Z,111.17
2019-03-01T07:16:16.139Z,97.50
2019-03-01T07:18:44.365Z,80.17
2019-03-01T07:21:12.657Z,94.50
2019-03-01T07:23:40.922Z,97.73
2019-03-01T07:26:09.111Z,102.73
2019-03-01T07:28:37.332Z,108.50
2019-03-01T07:31:07.083Z,102.03
2019-03-01T07:33:35.513Z,96.23
2019-03-01T07:36:03.704Z,118.30
2019-03-01T07:38:31.981Z,106.00
2019-03-01T07:41:00.168Z,108.03
2019-03-01T07:43:28.360Z,101.37
2019-03-01T07:45:56.830Z,95.93
2019-03-01T07:48:25.093Z,99.53
2019-03-01T07:50:55.284Z,91.37
2019-03-01T07:53:23.197Z,99.50
2019-03-01T07:55:51.449Z,99.63
2019-03-01T07:58:21.544Z,100.90
2019-03-01T08:00:53.350Z,97.53
2019-03-01T08:03:19.527Z,90.73
2019-03-01T08:05:47.793Z,89.00
2019-03-01T08:08:16.003Z,91.20
2019-03-01T08:10:44.192Z,93.67
2019-03-01T08:13:14.737Z,83.17
2019-03-01T08:15:44.897Z,92.10
2019-03-01T08:18:12.242Z,86.23
2019-03-01T08:20:40.493Z,82.83
2019-03-01T08:23:08.706Z,90.07
2019-03-01T08:25:36.894Z,87.43
2019-03-01T08:28:05.125Z,87.87
2019-03-01T08:30:33.437Z,79.77
2019-03-01T08:33:02.667Z,89.07
2019-03-01T08:35:32.337Z,83.97
2019-03-01T08:38:00.709Z,78.67
2019-03-01T08:40:28.962Z,78.50
2019-03-01T08:42:57.177Z,85.63
2019-03-01T08:45:25.360Z,84.27
2019-03-01T08:47:55.507Z,83.37
2019-03-01T08:50:23.440Z,86.87
2019-03-01T08:52:51.651Z,84.60
2019-03-01T08:55:23.713Z,73.57
2019-03-01T08:57:51.916Z,89.03
2019-03-01T09:00:23.155Z,82.45
2019-03-01T09:02:51.832Z,76.60
2019-03-01T09:05:20.084Z,73.37
2019-03-01T09:07:48.388Z,86.87
2019-03-01T09:10:17.101Z,85.73
2019-03-01T09:12:45.302Z,76.50
2019-03-01T09:15:14.526Z,86.13
2019-03-01T09:17:42.740Z,78.37
2019-03-01T09:20:12.497Z,76.73
2019-03-01T09:22:40.682Z,79.93
2019-03-01T09:25:10.001Z,96.77
2019-03-01T09:27:38.231Z,80.20
2019-03-01T09:30:08.014Z,91.73
2019-03-01T09:32:36.257Z,84.50
2019-03-01T09:35:16.573Z,91.67
2019-03-01T09:37:44.786Z,76.97
2019-03-01T09:40:13.033Z,85.00
2019-03-01T09:42:41.216Z,85.40
2019-03-01T09:45:10.496Z,84.50
2019-03-01T09:47:39.996Z,76.70
2019-03-01T09:50:10.209Z,77.97
2019-03-01T09:52:38.437Z,91.03
2019-03-01T09:55:10.369Z,87.30
2019-03-01T09:57:38.597Z,80.20
2019-03-01T10:00:08.713Z,85.30
2019-03-01T10:02:36.937Z,76.40
2019-03-01T10:05:06.700Z,83.20
2019-03-01T10:07:34.960Z,87.50
2019-03-01T10:10:04.440Z,87.80
2019-03-01T10:12:32.690Z,82.97
2019-03-01T10:15:00.881Z,86.73
2019-03-01T10:17:29.085Z,82.37
2019-03-01T10:19:57.319Z,78.93
2019-03-01T10:22:25.512Z,88.10
2019-03-01T10:24:53.731Z,92.33
2019-03-01T10:27:21.912Z,87.37
2019-03-01T10:29:50.194Z,79.27
2019-03-01T10:32:18.405Z,83.37
2019-03-01T10:34:46.617Z,100.17
2019-03-01T10:37:14.862Z,76.90
2019-03-01T10:39:43.075Z,74.40
2019-03-01T10:42:11.381Z,80.47
2019-03-01T10:44:39.590Z,88.13
2019-03-01T10:47:07.785Z,90.30
2019-03-01T10:49:36.012Z,85.67
2019-03-01T10:54:31.580Z,100.97
2019-03-01T10:56:59.806Z,102.70
2019-03-01T10:59:28.055Z,76.50
2019-03-01T11:01:56.266Z,91.50
2019-03-01T11:04:24.513Z,82.30
2019-03-01T11:06:53.161Z,86.57
2019-03-01T11:09:21.388Z,94.90
2019-03-01T11:11:49.575Z,85.03
2019-03-01T11:14:17.799Z,109.97
2019-03-01T11:16:46.021Z,121.47
2019-03-01T11:19:14.258Z,108.10
2019-03-01T11:21:42.444Z,117.37
2019-03-01T11:24:10.665Z,131.93
2019-03-01T11:26:38.856Z,127.40
2019-03-01T11:29:07.064Z,131.57
2019-03-01T11:31:35.292Z,139.07
2019-03-01T11:34:03.564Z,144.23
2019-03-01T11:36:31.780Z,133.77
2019-03-01T11:38:59.978Z,139.33
2019-03-01T11:41:28.227Z,159.10
2019-03-01T11:43:56.484Z,141.73
2019-03-01T11:46:24.729Z,127.07
2019-03-01T11:48:52.938Z,122.43
2019-03-01T11:51:21.165Z,129.37
2019-03-01T11:53:49.365Z,144.97
2019-03-01T11:56:17.588Z,135.80
2019-03-01T11:58:45.814Z,130.00
2019-03-01T12:01:17.274Z,140.17
2019-03-01T12:03:43.953Z,130.40
2019-03-01T12:06:12.141Z,137.03
2019-03-01T12:08:40.340Z,135.27
2019-03-01T12:11:08.741Z,141.40
2019-03-01T12:13:37.017Z,131.27
2019-03-01T12:16:05.205Z,144.87
2019-03-01T12:18:33.441Z,139.43
2019-03-01T12:21:01.627Z,121.03
2019-03-01T12:23:29.885Z,120.10
2019-03-01T12:25:58.100Z,133.57
2019-03-01T12:28:26.317Z,119.37
2019-03-01T12:30:54.545Z,151.67
2019-03-01T12:33:22.735Z,120.83
2019-03-01T12:35:50.941Z,120.13
2019-03-01T12:38:19.166Z,117.17
2019-03-01T12:40:47.422Z,113.30
2019-03-01T12:43:15.708Z,116.20
2019-03-01T12:45:43.906Z,113.97
2019-03-01T12:48:12.092Z,106.90
2019-03-01T12:50:40.314Z,98.70
2019-03-01T12:53:08.529Z,87.83
2019-03-01T12:55:36.760Z,88.37
2019-03-01T12:58:04.948Z,83.20
2019-03-01T13:00:33.912Z,87.73
2019-03-01T13:03:05.181Z,90.23
2019-03-01T13:05:32.007Z,88.53
2019-03-01T13:08:00.213Z,89.07
2019-03-01T13:10:32.159Z,75.83
2019-03-01T13:13:02.057Z,79.50
2019-03-01T13:15:30.313Z,85.27
2019-03-01T13:17:58.548Z,78.30
2019-03-01T13:20:26.797Z,87.13
2019-03-01T13:22:55.000Z,92.33
2019-03-01T13:25:25.870Z,76.17
2019-03-01T13:27:53.717Z,76.87
2019-03-01T13:30:23.564Z,70.93
2019-03-01T13:32:51.773Z,63.67
2019-03-01T13:35:25.990Z,73.73
2019-03-01T13:37:55.466Z,75.27
2019-03-01T13:40:24.349Z,72.20
2019-03-01T13:42:53.339Z,54.67
2019-03-01T13:45:22.224Z,54.13
2019-03-01T13:47:50.456Z,45.47
2019-03-01T13:50:19.045Z,52.10
2019-03-01T13:52:47.314Z,49.57
2019-03-01T13:55:18.694Z,60.30
2019-03-01T13:57:45.998Z,44.17
2019-03-01T14:00:16.453Z,48.83
2019-03-01T14:02:46.914Z,47.83
2019-03-01T14:05:17.126Z,37.70
2019-03-01T14:07:45.404Z,41.00
2019-03-01T14:10:15.170Z,33.33
2019-03-01T14:12:43.348Z,33.77
2019-03-01T14:15:12.974Z,35.73
2019-03-01T14:17:41.192Z,32.37
2019-03-01T14:20:19.173Z,29.10
2019-03-01T14:22:47.432Z,35.63
2019-03-01T14:25:13.893Z,29.93
2019-03-01T14:27:42.256Z,31.17
2019-03-01T14:30:11.917Z,27.50
2019-03-01T14:32:40.136Z,27.30
2019-03-01T14:35:09.016Z,29.40
2019-03-01T14:37:37.224Z,26.33
2019-03-01T14:40:07.212Z,28.40
2019-03-01T14:42:35.433Z,32.73
2019-03-01T14:45:06.571Z,28.13
2019-03-01T14:47:35.041Z,29.67
2019-03-01T14:50:03.241Z,25.07
2019-03-01T14:52:31.512Z,21.17
2019-03-01T14:54:59.692Z,24.73
2019-03-01T14:57:27.897Z,24.23
2019-03-01T14:59:57.657Z,25.90
2019-03-01T15:02:27.391Z,23.87
2019-03-01T15:04:55.602Z,25.80
2019-03-01T15:07:23.868Z,21.10
2019-03-01T15:09:53.336Z,21.03
2019-03-01T15:12:21.926Z,25.03
2019-03-01T15:14:50.837Z,27.97
2019-03-01T15:17:21.904Z,28.50
2019-03-01T15:19:49.088Z,21.37
2019-03-01T15:22:17.332Z,23.70
2019-03-01T15:27:12.884Z,19.30
2019-03-01T15:29:41.070Z,21.53
2019-03-01T15:32:09.369Z,20.47
2019-03-01T15:34:37.573Z,20.77
2019-03-01T15:37:05.785Z,17.07
2019-03-01T15:39:34.001Z,19.03
2019-03-01T15:42:02.261Z,23.37
2019-03-01T15:44:30.438Z,15.67
2019-03-01T15:46:58.620Z,18.60
2019-03-01T15:49:26.858Z,14.53
2019-03-01T15:51:55.097Z,20.17
2019-03-01T15:54:23.994Z,18.20
2019-03-01T15:56:52.201Z,18.37
2019-03-01T15:59:20.449Z,17.33
2019-03-01T16:01:48.627Z,19.43
2019-03-01T16:04:16.849Z,17.63
2019-03-01T16:06:45.062Z,17.70
2019-03-01T16:09:14.880Z,18.40
2019-03-01T16:11:43.057Z,15.63
2019-03-01T16:14:11.277Z,18.83
2019-03-01T16:16:39.521Z,37.60
2019-03-01T16:19:07.733Z,43.43
2019-03-01T16:21:36.600Z,61.90
2019-03-01T16:24:04.976Z,47.87
2019-03-01T16:26:36.442Z,21.57
2019-03-01T16:29:07.303Z,44.90
2019-03-01T16:31:34.674Z,58.33
2019-03-01T16:34:04.521Z,48.63
2019-03-01T16:36:33.279Z,28.63
2019-03-01T16:39:01.520Z,15.93
2019-03-01T16:41:29.704Z,35.53
2019-03-01T16:43:57.888Z,24.53
2019-03-01T16:46:28.538Z,31.70
2019-03-01T16:48:56.041Z,21.13
2019-03-01T16:51:24.225Z,27.83
2019-03-01T16:53:52.435Z,30.80
2019-03-01T16:56:20.625Z,38.70
2019-03-01T16:58:48.808Z,20.23
2019-03-01T17:01:17.026Z,45.80
2019-03-01T17:03:45.215Z,85.33
2019-03-01T17:06:13.766Z,29.70
2019-03-01T17:08:42.950Z,16.40
2019-03-01T17:11:11.161Z,20.77
2019-03-01T17:13:39.372Z,21.83
2019-03-01T17:16:07.703Z,20.53
2019-03-01T17:18:35.890Z,17.63
2019-03-01T17:21:04.067Z,13.30
2019-03-01T17:23:32.257Z,15.07
2019-03-01T17:26:00.440Z,18.00
2019-03-01T17:28:28.657Z,11.23
2019-03-01T17:30:58.242Z,19.07
2019-03-01T17:33:26.573Z,12.23
2019-03-01T17:35:54.785Z,20.40
2019-03-01T17:38:22.978Z,11.07
2019-03-01T17:40:51.160Z,18.27
2019-03-01T17:43:19.356Z,12.90
2019-03-01T17:45:47.568Z,17.70
2019-03-01T17:48:18.361Z,21.83
2019-03-01T17:50:45.724Z,16.57
2019-03-01T17:53:13.977Z,15.50
2019-03-01T17:55:42.185Z,19.60
2019-03-01T17:58:10.364Z,15.10
2019-03-01T18:00:40.374Z,17.43
2019-03-01T18:03:08.581Z,15.73
2019-03-01T18:05:40.091Z,16.27
2019-03-01T18:08:06.696Z,17.90
2019-03-01T18:10:34.884Z,17.40
2019-03-01T18:13:03.065Z,19.63
2019-03-01T18:15:31.285Z,19.70
2019-03-01T18:17:59.466Z,22.33
2019-03-01T18:20:27.714Z,17.07
2019-03-01T18:22:55.889Z,20.03
2019-03-01T18:25:26.390Z,20.43
2019-03-01T18:27:54.051Z,17.85
2019-03-01T18:30:26.015Z,18.63
2019-03-01T18:32:54.192Z,17.10
2019-03-01T18:35:22.456Z,19.90
2019-03-01T18:37:51.457Z,19.03
2019-03-01T18:40:20.570Z,17.23
2019-03-01T18:42:48.784Z,20.87
2019-03-01T18:45:26.604Z,15.57
2019-03-01T18:47:54.814Z,17.07
2019-03-01T18:50:32.814Z,19.80
2019-03-01T18:53:03.592Z,20.33
2019-03-01T18:55:31.516Z,17.00
2019-03-01T18:57:59.777Z,15.77
2019-03-01T19:00:35.427Z,17.13
2019-03-01T19:03:04.356Z,20.23
2019-03-01T19:05:32.322Z,16.53
2019-03-01T19:08:00.885Z,17.50
2019-03-01T19:10:30.463Z,16.40
2019-03-01T19:12:58.705Z,14.10
2019-03-01T19:15:26.937Z,17.43
2019-03-01T19:17:55.115Z,15.00
2019-03-01T19:20:24.567Z,14.77
2019-03-01T19:22:52.760Z,16.30
2019-03-01T19:25:21.625Z,13.87
2019-03-01T19:27:51.758Z,18.23
2019-03-01T19:30:21.133Z,14.53
2019-03-01T19:32:49.332Z,13.20
2019-03-01T19:35:17.644Z,13.37
2019-03-01T19:37:49.323Z,13.67
2019-03-01T19:40:16.806Z,15.80
2019-03-01T19:42:45.046Z,12.70
2019-03-01T19:45:14.293Z,14.20
2019-03-01T19:47:42.503Z,13.70
2019-03-01T19:50:12.308Z,15.07
2019-03-01T19:52:43.390Z,13.30
2019-03-01T19:55:11.755Z,12.47
2019-03-01T19:57:40.673Z,15.17
2019-03-01T20:00:19.189Z,16.30
2019-03-01T20:02:47.420Z,16.10
2019-03-01T20:05:16.835Z,18.43
2019-03-01T20:07:45.089Z,17.83
2019-03-01T20:10:15.887Z,10.10
2019-03-01T20:12:44.329Z,15.97
2019-03-01T20:15:14.044Z,14.97
2019-03-01T20:17:44.590Z,17.03
2019-03-01T20:20:13.825Z,18.30
2019-03-01T20:22:42.061Z,21.17
2019-03-01T20:25:12.711Z,15.60
2019-03-01T20:27:41.277Z,14.23
2019-03-01T20:30:11.354Z,17.33
2019-03-01T20:32:39.527Z,12.70
2019-03-01T20:35:09.792Z,16.70
2019-03-01T20:37:39.998Z,13.57
2019-03-01T20:40:09.825Z,16.33
2019-03-01T20:42:38.104Z,14.70
2019-03-01T20:45:09.149Z,20.70
2019-03-01T20:47:37.529Z,14.27
2019-03-01T20:50:06.941Z,13.17
2019-03-01T20:52:38.058Z,13.67
2019-03-01T20:55:06.869Z,12.50
2019-03-01T20:57:35.052Z,12.73
2019-03-01T21:00:04.524Z,14.63
2019-03-01T21:02:32.767Z,15.00
2019-03-01T21:05:01.005Z,14.80
2019-03-01T21:07:29.277Z,17.63
2019-03-01T21:09:57.489Z,14.67
2019-03-01T21:12:25.737Z,15.60
2019-03-01T21:14:53.912Z,16.60
2019-03-01T21:17:22.110Z,15.63
2019-03-01T21:19:50.325Z,12.63
2019-03-01T21:22:18.537Z,13.97
2019-03-01T21:24:46.749Z,18.57
2019-03-01T21:27:14.940Z,15.47
2019-03-01T21:29:44.692Z,17.03
2019-03-01T21:32:14.703Z,12.57
2019-03-01T21:34:43.062Z,12.13
2019-03-01T21:37:11.274Z,13.40
2019-03-01T21:39:39.497Z,17.73
2019-03-01T21:42:07.706Z,23.20
2019-03-01T21:44:35.881Z,13.20
2019-03-01T21:47:06.923Z,18.03
2019-03-01T21:49:34.001Z,19.63
2019-03-01T21:52:02.207Z,12.47
2019-03-01T21:54:30.449Z,12.13
2019-03-01T21:56:58.649Z,15.50
2019-03-01T21:59:26.824Z,16.10
2019-03-01T22:01:55.054Z,13.90
2019-03-01T22:04:23.265Z,14.70
2019-03-01T22:06:51.572Z,12.77
2019-03-01T22:09:20.700Z,14.93
2019-03-01T22:11:50.131Z,14.40
2019-03-01T22:14:18.441Z,15.97
2019-03-01T22:16:46.632Z,17.70
2019-03-01T22:19:14.845Z,15.70
2019-03-01T22:21:43.044Z,14.80
2019-03-01T22:24:11.253Z,16.80
2019-03-01T22:26:39.432Z,12.83
2019-03-01T22:29:08.819Z,18.10
2019-03-01T22:31:39.605Z,12.83
2019-03-01T22:34:07.440Z,19.13
2019-03-01T22:36:35.622Z,17.40
2019-03-01T22:39:05.456Z,16.10
2019-03-01T22:41:35.634Z,13.87
2019-03-01T22:44:03.581Z,14.23
2019-03-01T22:46:31.752Z,12.90
2019-03-01T22:48:59.965Z,15.80
2019-03-01T22:51:28.178Z,15.73
2019-03-01T22:53:56.357Z,18.07
2019-03-01T22:56:24.582Z,21.43
2019-03-01T22:58:52.760Z,16.10
2019-03-01T23:01:21.941Z,18.37
2019-03-01T23:03:51.469Z,16.80
2019-03-01T23:06:20.106Z,16.90
2019-03-01T23:08:48.305Z,15.43
2019-03-01T23:11:16.480Z,12.33
2019-03-01T23:13:44.706Z,20.67
2019-03-01T23:16:15.958Z,17.73
2019-03-01T23:18:42.845Z,19.20
2019-03-01T23:21:11.016Z,15.23
2019-03-01T23:23:39.241Z,15.73
2019-03-01T23:26:07.449Z,16.50
2019-03-01T23:28:35.636Z,20.27
2019-03-01T23:31:04.638Z,15.20
2019-03-01T23:33:32.962Z,18.17
2019-03-01T23:36:01.144Z,18.40
2019-03-01T23:38:29.345Z,19.20
2019-03-01T23:40:57.553Z,16.53
2019-03-01T23:43:27.520Z,19.00
2019-03-01T23:45:55.696Z,22.73
2019-03-01T23:48:23.891Z,14.87
2019-03-01T23:50:52.101Z,15.90
2019-03-01T23:53:20.300Z,17.00
2019-03-01T23:55:51.016Z,15.33
2019-03-01T23:58:18.520Z,17.80
